sensor_id;sensor_type;location;lat;lon;timestamp;temperature;humidity
15574;DHT22;7888;46.748;8.102;2023-02-01T00:02:18;6.50;48.50
15574;DHT22;7888;46.748;8.102;2023-02-01T00:04:44;6.50;48.60
15574;DHT22;7888;46.748;8.102;2023-02-01T00:07:10;6.50;48.60
15574;DHT22;7888;46.748;8.102;2023-02-01T00:09:35;6.40;48.60
15574;DHT22;7888;46.748;8.102;2023-02-01T00:12:01;6.50;48.70
15574;DHT22;7888;46.748;8.102;2023-02-01T00:14:29;6.40;48.60
15574;DHT22;7888;46.748;8.102;2023-02-01T00:16:55;6.40;48.60
15574;DHT22;7888;46.748;8.102;2023-02-01T00:19:20;6.40;48.70
15574;DHT22;7888;46.748;8.102;2023-02-01T00:21:46;6.40;48.70
15574;DHT22;7888;46.748;8.102;2023-02-01T00:24:12;6.40;48.80
15574;DHT22;7888;46.748;8.102;2023-02-01T00:26:41;6.50;48.80
15574;DHT22;7888;46.748;8.102;2023-02-01T00:29:16;6.40;48.80
15574;DHT22;7888;46.748;8.102;2023-02-01T00:31:44;6.40;48.90
15574;DHT22;7888;46.748;8.102;2023-02-01T00:34:15;6.40;48.80
15574;DHT22;7888;46.748;8.102;2023-02-01T00:36:42;6.40;48.90
15574;DHT22;7888;46.748;8.102;2023-02-01T00:39:10;6.40;48.80
15574;DHT22;7888;46.748;8.102;2023-02-01T00:41:36;6.40;48.80
15574;DHT22;7888;46.748;8.102;2023-02-01T00:44:02;6.40;48.90
15574;DHT22;7888;46.748;8.102;2023-02-01T00:46:28;6.40;48.90
15574;DHT22;7888;46.748;8.102;2023-02-01T00:48:54;6.40;48.90
15574;DHT22;7888;46.748;8.102;2023-02-01T00:51:23;6.40;48.90
15574;DHT22;7888;46.748;8.102;2023-02-01T00:53:51;6.40;49.00
15574;DHT22;7888;46.748;8.102;2023-02-01T00:56:17;6.40;48.90
15574;DHT22;7888;46.748;8.102;2023-02-01T00:58:43;6.40;48.90
15574;DHT22;7888;46.748;8.102;2023-02-01T01:01:18;6.40;48.90
15574;DHT22;7888;46.748;8.102;2023-02-01T01:03:53;6.40;49.10
15574;DHT22;7888;46.748;8.102;2023-02-01T01:06:23;6.40;48.90
15574;DHT22;7888;46.748;8.102;2023-02-01T01:08:52;6.40;48.90
15574;DHT22;7888;46.748;8.102;2023-02-01T01:11:22;6.40;48.90
15574;DHT22;7888;46.748;8.102;2023-02-01T01:13:51;6.40;48.90
15574;DHT22;7888;46.748;8.102;2023-02-01T01:16:19;6.40;48.80
15574;DHT22;7888;46.748;8.102;2023-02-01T01:18:47;6.40;48.90
15574;DHT22;7888;46.748;8.102;2023-02-01T01:21:14;6.40;48.90
15574;DHT22;7888;46.748;8.102;2023-02-01T01:23:42;6.40;48.90
15574;DHT22;7888;46.748;8.102;2023-02-01T01:26:12;6.40;48.90
15574;DHT22;7888;46.748;8.102;2023-02-01T01:28:39;6.30;48.90
15574;DHT22;7888;46.748;8.102;2023-02-01T01:31:10;6.30;48.80
15574;DHT22;7888;46.748;8.102;2023-02-01T01:33:37;6.30;49.00
15574;DHT22;7888;46.748;8.102;2023-02-01T01:36:08;6.20;48.80
15574;DHT22;7888;46.748;8.102;2023-02-01T01:38:38;6.20;48.90
15574;DHT22;7888;46.748;8.102;2023-02-01T01:41:06;6.10;48.90
15574;DHT22;7888;46.748;8.102;2023-02-01T01:44:05;6.10;48.80
15574;DHT22;7888;46.748;8.102;2023-02-01T01:46:36;6.10;49.30
15574;DHT22;7888;46.748;8.102;2023-02-01T01:49:20;6.00;48.80
15574;DHT22;7888;46.748;8.102;2023-02-01T01:52:07;5.90;48.80
15574;DHT22;7888;46.748;8.102;2023-02-01T01:54:53;5.90;49.10
15574;DHT22;7888;46.748;8.102;2023-02-01T01:57:27;5.80;49.20
15574;DHT22;7888;46.748;8.102;2023-02-01T02:00:07;5.80;49.00
15574;DHT22;7888;46.748;8.102;2023-02-01T02:02:36;5.70;49.00
15574;DHT22;7888;46.748;8.102;2023-02-01T02:05:04;5.70;48.90
15574;DHT22;7888;46.748;8.102;2023-02-01T02:07:33;5.70;48.90
15574;DHT22;7888;46.748;8.102;2023-02-01T02:10:05;5.70;49.00
15574;DHT22;7888;46.748;8.102;2023-02-01T02:12:38;5.60;49.00
15574;DHT22;7888;46.748;8.102;2023-02-01T02:15:10;5.60;49.10
15574;DHT22;7888;46.748;8.102;2023-02-01T02:18:10;5.60;49.30
15574;DHT22;7888;46.748;8.102;2023-02-01T02:21:05;5.60;49.70
15574;DHT22;7888;46.748;8.102;2023-02-01T02:29:31;5.50;49.40
15574;DHT22;7888;46.748;8.102;2023-02-01T02:40:41;5.40;49.20
15574;DHT22;7888;46.748;8.102;2023-02-01T02:43:23;5.40;49.40
15574;DHT22;7888;46.748;8.102;2023-02-01T02:46:25;5.40;49.30
15574;DHT22;7888;46.748;8.102;2023-02-01T02:49:25;5.40;49.10
15574;DHT22;7888;46.748;8.102;2023-02-01T02:52:04;5.40;49.20
15574;DHT22;7888;46.748;8.102;2023-02-01T02:54:54;5.40;49.20
15574;DHT22;7888;46.748;8.102;2023-02-01T02:57:32;5.30;49.10
15574;DHT22;7888;46.748;8.102;2023-02-01T03:00:24;5.30;49.30
15574;DHT22;7888;46.748;8.102;2023-02-01T03:03:12;5.30;49.30
15574;DHT22;7888;46.748;8.102;2023-02-01T03:05:57;5.20;49.20
15574;DHT22;7888;46.748;8.102;2023-02-01T03:08:25;5.20;49.30
15574;DHT22;7888;46.748;8.102;2023-02-01T03:11:09;5.20;49.30
15574;DHT22;7888;46.748;8.102;2023-02-01T03:16:20;5.20;49.50
15574;DHT22;7888;46.748;8.102;2023-02-01T03:19:12;5.10;49.60
15574;DHT22;7888;46.748;8.102;2023-02-01T03:21:52;5.10;49.50
15574;DHT22;7888;46.748;8.102;2023-02-01T03:27:19;5.10;49.90
15574;DHT22;7888;46.748;8.102;2023-02-01T03:29:55;5.10;50.20
15574;DHT22;7888;46.748;8.102;2023-02-01T03:32:28;5.10;50.00
15574;DHT22;7888;46.748;8.102;2023-02-01T03:34:55;5.00;49.80
15574;DHT22;7888;46.748;8.102;2023-02-01T03:37:26;5.00;49.80
15574;DHT22;7888;46.748;8.102;2023-02-01T03:40:07;5.00;50.10
15574;DHT22;7888;46.748;8.102;2023-02-01T03:42:48;5.00;50.10
15574;DHT22;7888;46.748;8.102;2023-02-01T03:45:35;5.00;50.10
15574;DHT22;7888;46.748;8.102;2023-02-01T03:48:07;5.00;50.10
15574;DHT22;7888;46.748;8.102;2023-02-01T03:50:37;5.00;49.70
15574;DHT22;7888;46.748;8.102;2023-02-01T03:53:09;5.00;49.80
15574;DHT22;7888;46.748;8.102;2023-02-01T03:55:41;5.00;49.80
15574;DHT22;7888;46.748;8.102;2023-02-01T04:00:38;4.90;50.00
15574;DHT22;7888;46.748;8.102;2023-02-01T04:03:06;4.90;49.80
15574;DHT22;7888;46.748;8.102;2023-02-01T04:05:33;4.90;49.80
15574;DHT22;7888;46.748;8.102;2023-02-01T04:07:59;4.80;49.80
15574;DHT22;7888;46.748;8.102;2023-02-01T04:10:25;4.80;49.80
15574;DHT22;7888;46.748;8.102;2023-02-01T04:12:52;4.80;49.90
15574;DHT22;7888;46.748;8.102;2023-02-01T04:15:18;4.70;49.90
15574;DHT22;7888;46.748;8.102;2023-02-01T04:17:44;4.70;50.00
15574;DHT22;7888;46.748;8.102;2023-02-01T04:20:11;4.70;50.10
15574;DHT22;7888;46.748;8.102;2023-02-01T04:22:37;4.70;50.10
15574;DHT22;7888;46.748;8.102;2023-02-01T04:25:03;4.70;50.00
15574;DHT22;7888;46.748;8.102;2023-02-01T04:27:31;4.70;50.00
15574;DHT22;7888;46.748;8.102;2023-02-01T04:29:57;4.70;50.00
15574;DHT22;7888;46.748;8.102;2023-02-01T04:32:23;4.70;50.00
15574;DHT22;7888;46.748;8.102;2023-02-01T04:34:48;4.60;50.00
15574;DHT22;7888;46.748;8.102;2023-02-01T04:37:14;4.60;50.00
15574;DHT22;7888;46.748;8.102;2023-02-01T04:39:40;4.60;50.00
15574;DHT22;7888;46.748;8.102;2023-02-01T04:42:06;4.60;50.10
15574;DHT22;7888;46.748;8.102;2023-02-01T04:44:32;4.60;50.20
15574;DHT22;7888;46.748;8.102;2023-02-01T04:46:57;4.60;50.10
15574;DHT22;7888;46.748;8.102;2023-02-01T04:49:24;4.60;50.10
15574;DHT22;7888;46.748;8.102;2023-02-01T04:51:51;4.60;50.10
15574;DHT22;7888;46.748;8.102;2023-02-01T04:54:17;4.50;50.00
15574;DHT22;7888;46.748;8.102;2023-02-01T04:56:43;4.50;50.00
15574;DHT22;7888;46.748;8.102;2023-02-01T04:59:11;4.50;50.00
15574;DHT22;7888;46.748;8.102;2023-02-01T05:01:37;4.50;50.20
15574;DHT22;7888;46.748;8.102;2023-02-01T05:04:03;4.50;50.20
15574;DHT22;7888;46.748;8.102;2023-02-01T05:06:29;4.50;50.20
15574;DHT22;7888;46.748;8.102;2023-02-01T05:08:55;4.50;50.20
15574;DHT22;7888;46.748;8.102;2023-02-01T05:11:21;4.50;50.20
15574;DHT22;7888;46.748;8.102;2023-02-01T05:14:05;4.50;50.20
15574;DHT22;7888;46.748;8.102;2023-02-01T05:16:31;4.50;50.10
15574;DHT22;7888;46.748;8.102;2023-02-01T05:18:57;4.50;50.00
15574;DHT22;7888;46.748;8.102;2023-02-01T05:21:24;4.40;50.00
15574;DHT22;7888;46.748;8.102;2023-02-01T05:23:50;4.40;50.00
15574;DHT22;7888;46.748;8.102;2023-02-01T05:26:35;4.40;50.10
15574;DHT22;7888;46.748;8.102;2023-02-01T05:29:02;4.40;50.10
15574;DHT22;7888;46.748;8.102;2023-02-01T05:31:28;4.30;50.00
15574;DHT22;7888;46.748;8.102;2023-02-01T05:33:54;4.30;50.00
15574;DHT22;7888;46.748;8.102;2023-02-01T05:36:20;4.30;50.10
15574;DHT22;7888;46.748;8.102;2023-02-01T05:38:46;4.30;50.20
15574;DHT22;7888;46.748;8.102;2023-02-01T05:41:12;4.30;50.20
15574;DHT22;7888;46.748;8.102;2023-02-01T05:43:38;4.20;50.30
15574;DHT22;7888;46.748;8.102;2023-02-01T05:46:04;4.20;50.30
15574;DHT22;7888;46.748;8.102;2023-02-01T05:48:30;4.20;50.40
15574;DHT22;7888;46.748;8.102;2023-02-01T05:50:56;4.20;50.40
15574;DHT22;7888;46.748;8.102;2023-02-01T05:53:22;4.10;50.50
15574;DHT22;7888;46.748;8.102;2023-02-01T05:55:48;4.10;50.60
15574;DHT22;7888;46.748;8.102;2023-02-01T05:58:14;4.10;50.70
15574;DHT22;7888;46.748;8.102;2023-02-01T06:00:40;4.10;50.70
15574;DHT22;7888;46.748;8.102;2023-02-01T06:03:06;4.10;50.80
15574;DHT22;7888;46.748;8.102;2023-02-01T06:05:33;4.10;50.90
15574;DHT22;7888;46.748;8.102;2023-02-01T06:07:58;4.10;50.90
15574;DHT22;7888;46.748;8.102;2023-02-01T06:10:24;4.10;50.90
15574;DHT22;7888;46.748;8.102;2023-02-01T06:12:50;4.10;50.90
15574;DHT22;7888;46.748;8.102;2023-02-01T06:15:16;4.10;50.90
15574;DHT22;7888;46.748;8.102;2023-02-01T06:17:44;4.10;50.90
15574;DHT22;7888;46.748;8.102;2023-02-01T06:20:12;4.00;51.00
15574;DHT22;7888;46.748;8.102;2023-02-01T06:22:40;4.00;51.00
15574;DHT22;7888;46.748;8.102;2023-02-01T06:25:08;4.00;51.00
15574;DHT22;7888;46.748;8.102;2023-02-01T06:27:35;4.00;51.20
15574;DHT22;7888;46.748;8.102;2023-02-01T06:30:03;3.90;51.10
15574;DHT22;7888;46.748;8.102;2023-02-01T06:32:30;3.90;51.00
15574;DHT22;7888;46.748;8.102;2023-02-01T06:34:56;3.90;50.90
15574;DHT22;7888;46.748;8.102;2023-02-01T06:37:23;3.90;50.90
15574;DHT22;7888;46.748;8.102;2023-02-01T06:39:50;3.90;50.90
15574;DHT22;7888;46.748;8.102;2023-02-01T06:42:16;3.90;51.00
15574;DHT22;7888;46.748;8.102;2023-02-01T06:44:42;3.90;51.00
15574;DHT22;7888;46.748;8.102;2023-02-01T06:47:08;3.90;51.00
15574;DHT22;7888;46.748;8.102;2023-02-01T06:49:34;3.90;51.00
15574;DHT22;7888;46.748;8.102;2023-02-01T06:51:59;3.90;50.90
15574;DHT22;7888;46.748;8.102;2023-02-01T06:54:26;3.90;50.90
15574;DHT22;7888;46.748;8.102;2023-02-01T06:56:52;3.90;50.90
15574;DHT22;7888;46.748;8.102;2023-02-01T06:59:18;3.90;51.00
15574;DHT22;7888;46.748;8.102;2023-02-01T07:01:44;3.90;51.00
15574;DHT22;7888;46.748;8.102;2023-02-01T07:04:11;3.90;51.20
15574;DHT22;7888;46.748;8.102;2023-02-01T07:06:40;3.90;51.10
15574;DHT22;7888;46.748;8.102;2023-02-01T07:09:07;3.90;51.10
15574;DHT22;7888;46.748;8.102;2023-02-01T07:11:33;3.90;51.10
15574;DHT22;7888;46.748;8.102;2023-02-01T07:13:59;3.90;51.10
15574;DHT22;7888;46.748;8.102;2023-02-01T07:16:25;3.90;51.20
15574;DHT22;7888;46.748;8.102;2023-02-01T07:18:52;3.90;51.30
15574;DHT22;7888;46.748;8.102;2023-02-01T07:21:19;3.90;51.20
15574;DHT22;7888;46.748;8.102;2023-02-01T07:23:46;3.90;51.10
15574;DHT22;7888;46.748;8.102;2023-02-01T07:26:13;3.90;51.20
15574;DHT22;7888;46.748;8.102;2023-02-01T07:28:40;3.80;51.10
15574;DHT22;7888;46.748;8.102;2023-02-01T07:31:11;3.80;51.10
15574;DHT22;7888;46.748;8.102;2023-02-01T07:33:43;3.80;51.30
15574;DHT22;7888;46.748;8.102;2023-02-01T07:36:15;3.80;51.30
15574;DHT22;7888;46.748;8.102;2023-02-01T07:38:41;3.80;51.50
15574;DHT22;7888;46.748;8.102;2023-02-01T07:41:08;3.80;51.40
15574;DHT22;7888;46.748;8.102;2023-02-01T07:43:35;3.80;51.50
15574;DHT22;7888;46.748;8.102;2023-02-01T07:46:03;3.90;51.70
15574;DHT22;7888;46.748;8.102;2023-02-01T07:48:30;3.90;51.90
15574;DHT22;7888;46.748;8.102;2023-02-01T07:50:58;4.00;52.10
15574;DHT22;7888;46.748;8.102;2023-02-01T07:53:30;4.00;52.20
15574;DHT22;7888;46.748;8.102;2023-02-01T07:55:56;4.20;52.20
15574;DHT22;7888;46.748;8.102;2023-02-01T07:58:23;4.20;52.10
15574;DHT22;7888;46.748;8.102;2023-02-01T08:00:49;4.30;52.00
15574;DHT22;7888;46.748;8.102;2023-02-01T08:03:34;4.40;52.00
15574;DHT22;7888;46.748;8.102;2023-02-01T08:06:00;4.50;52.10
15574;DHT22;7888;46.748;8.102;2023-02-01T08:08:25;4.60;52.10
15574;DHT22;7888;46.748;8.102;2023-02-01T08:10:56;4.70;52.20
15574;DHT22;7888;46.748;8.102;2023-02-01T08:13:22;4.80;52.20
15574;DHT22;7888;46.748;8.102;2023-02-01T08:15:48;5.00;52.10
15574;DHT22;7888;46.748;8.102;2023-02-01T08:18:14;5.10;51.80
15574;DHT22;7888;46.748;8.102;2023-02-01T08:20:42;5.20;51.70
15574;DHT22;7888;46.748;8.102;2023-02-01T08:23:11;5.30;51.70
15574;DHT22;7888;46.748;8.102;2023-02-01T08:25:38;5.40;51.60
15574;DHT22;7888;46.748;8.102;2023-02-01T08:28:05;5.50;51.50
15574;DHT22;7888;46.748;8.102;2023-02-01T08:30:32;5.60;51.30
15574;DHT22;7888;46.748;8.102;2023-02-01T08:32:58;5.70;51.20
15574;DHT22;7888;46.748;8.102;2023-02-01T08:35:24;5.80;51.30
15574;DHT22;7888;46.748;8.102;2023-02-01T08:37:50;5.90;51.20
15574;DHT22;7888;46.748;8.102;2023-02-01T08:40:16;6.00;51.10
15574;DHT22;7888;46.748;8.102;2023-02-01T08:42:43;6.10;51.20
15574;DHT22;7888;46.748;8.102;2023-02-01T08:45:23;6.20;51.00
15574;DHT22;7888;46.748;8.102;2023-02-01T08:47:51;6.30;51.00
15574;DHT22;7888;46.748;8.102;2023-02-01T08:50:19;6.40;50.80
15574;DHT22;7888;46.748;8.102;2023-02-01T08:52:46;6.50;50.80
15574;DHT22;7888;46.748;8.102;2023-02-01T08:55:13;6.70;50.70
15574;DHT22;7888;46.748;8.102;2023-02-01T08:57:40;6.80;50.70
15574;DHT22;7888;46.748;8.102;2023-02-01T09:00:09;6.90;50.50
15574;DHT22;7888;46.748;8.102;2023-02-01T09:02:38;7.00;50.10
15574;DHT22;7888;46.748;8.102;2023-02-01T09:05:05;7.00;50.00
15574;DHT22;7888;46.748;8.102;2023-02-01T09:07:32;7.10;50.10
15574;DHT22;7888;46.748;8.102;2023-02-01T09:09:59;7.20;50.30
15574;DHT22;7888;46.748;8.102;2023-02-01T09:12:27;7.30;50.40
15574;DHT22;7888;46.748;8.102;2023-02-01T09:14:56;7.40;50.40
15574;DHT22;7888;46.748;8.102;2023-02-01T09:17:27;7.60;50.30
15574;DHT22;7888;46.748;8.102;2023-02-01T09:19:54;7.70;50.00
15574;DHT22;7888;46.748;8.102;2023-02-01T09:22:21;7.80;49.80
15574;DHT22;7888;46.748;8.102;2023-02-01T09:24:47;7.90;49.60
15574;DHT22;7888;46.748;8.102;2023-02-01T09:27:15;8.10;49.80
15574;DHT22;7888;46.748;8.102;2023-02-01T09:29:41;8.20;50.00
15574;DHT22;7888;46.748;8.102;2023-02-01T09:32:07;8.40;50.50
15574;DHT22;7888;46.748;8.102;2023-02-01T09:34:33;8.60;50.50
15574;DHT22;7888;46.748;8.102;2023-02-01T09:36:59;8.90;50.30
15574;DHT22;7888;46.748;8.102;2023-02-01T09:39:25;9.10;49.90
15574;DHT22;7888;46.748;8.102;2023-02-01T09:48:16;9.60;47.90
15574;DHT22;7888;46.748;8.102;2023-02-01T09:50:49;9.70;47.60
15574;DHT22;7888;46.748;8.102;2023-02-01T09:53:35;9.70;47.70
15574;DHT22;7888;46.748;8.102;2023-02-01T09:56:06;9.70;47.60
15574;DHT22;7888;46.748;8.102;2023-02-01T09:59:09;9.80;48.00
15574;DHT22;7888;46.748;8.102;2023-02-01T10:01:44;10.00;47.90
15574;DHT22;7888;46.748;8.102;2023-02-01T10:04:12;10.10;48.20
15574;DHT22;7888;46.748;8.102;2023-02-01T10:24:36;10.40;46.30
15574;DHT22;7888;46.748;8.102;2023-02-01T10:27:23;10.40;46.60
15574;DHT22;7888;46.748;8.102;2023-02-01T10:30:00;10.40;46.80
15574;DHT22;7888;46.748;8.102;2023-02-01T10:32:34;10.40;46.90
15574;DHT22;7888;46.748;8.102;2023-02-01T10:35:18;10.40;46.90
15574;DHT22;7888;46.748;8.102;2023-02-01T10:37:49;10.40;46.70
15574;DHT22;7888;46.748;8.102;2023-02-01T10:40:19;10.50;47.10
15574;DHT22;7888;46.748;8.102;2023-02-01T10:42:52;10.50;46.90
15574;DHT22;7888;46.748;8.102;2023-02-01T10:45:26;10.60;46.80
15574;DHT22;7888;46.748;8.102;2023-02-01T10:47:55;10.50;46.60
15574;DHT22;7888;46.748;8.102;2023-02-01T10:53:24;10.50;46.50
15574;DHT22;7888;46.748;8.102;2023-02-01T10:55:55;10.50;46.10
15574;DHT22;7888;46.748;8.102;2023-02-01T10:58:30;10.40;46.30
15574;DHT22;7888;46.748;8.102;2023-02-01T11:01:08;10.40;46.20
15574;DHT22;7888;46.748;8.102;2023-02-01T11:14:34;10.40;46.40
15574;DHT22;7888;46.748;8.102;2023-02-01T11:20:03;10.50;46.40
15574;DHT22;7888;46.748;8.102;2023-02-01T11:22:35;10.60;46.50
15574;DHT22;7888;46.748;8.102;2023-02-01T11:25:01;10.70;46.60
15574;DHT22;7888;46.748;8.102;2023-02-01T11:27:34;10.80;46.40
15574;DHT22;7888;46.748;8.102;2023-02-01T11:30:01;10.90;46.40
15574;DHT22;7888;46.748;8.102;2023-02-01T11:32:30;10.90;46.20
15574;DHT22;7888;46.748;8.102;2023-02-01T11:35:00;11.00;46.10
15574;DHT22;7888;46.748;8.102;2023-02-01T11:37:36;11.00;45.90
15574;DHT22;7888;46.748;8.102;2023-02-01T11:43:00;11.20;45.80
15574;DHT22;7888;46.748;8.102;2023-02-01T11:45:33;11.30;46.00
15574;DHT22;7888;46.748;8.102;2023-02-01T11:48:10;11.40;46.20
15574;DHT22;7888;46.748;8.102;2023-02-01T11:57:20;11.80;45.80
15574;DHT22;7888;46.748;8.102;2023-02-01T12:12:04;12.50;45.10
15574;DHT22;7888;46.748;8.102;2023-02-01T12:26:38;12.60;43.90
15574;DHT22;7888;46.748;8.102;2023-02-01T12:43:56;13.90;45.00
15574;DHT22;7888;46.748;8.102;2023-02-01T12:46:30;14.50;45.10
15574;DHT22;7888;46.748;8.102;2023-02-01T12:51:45;15.70;44.50
15574;DHT22;7888;46.748;8.102;2023-02-01T12:54:38;16.30;44.20
15574;DHT22;7888;46.748;8.102;2023-02-01T12:57:22;17.00;43.60
15574;DHT22;7888;46.748;8.102;2023-02-01T12:59:59;17.50;43.00
15574;DHT22;7888;46.748;8.102;2023-02-01T13:05:57;18.70;40.90
15574;DHT22;7888;46.748;8.102;2023-02-01T13:08:40;19.20;40.50
15574;DHT22;7888;46.748;8.102;2023-02-01T13:11:33;19.50;39.30
15574;DHT22;7888;46.748;8.102;2023-02-01T13:16:53;19.90;38.00
15574;DHT22;7888;46.748;8.102;2023-02-01T13:19:45;20.00;37.00
15574;DHT22;7888;46.748;8.102;2023-02-01T13:22:26;20.10;37.60
15574;DHT22;7888;46.748;8.102;2023-02-01T13:25:00;20.10;37.00
15574;DHT22;7888;46.748;8.102;2023-02-01T13:27:36;20.30;37.60
15574;DHT22;7888;46.748;8.102;2023-02-01T13:30:16;20.50;38.10
15574;DHT22;7888;46.748;8.102;2023-02-01T13:35:55;21.00;37.20
15574;DHT22;7888;46.748;8.102;2023-02-01T13:42:16;21.30;35.80
15574;DHT22;7888;46.748;8.102;2023-02-01T13:45:19;21.40;35.60
15574;DHT22;7888;46.748;8.102;2023-02-01T13:47:49;21.40;35.00
15574;DHT22;7888;46.748;8.102;2023-02-01T13:53:02;21.60;35.40
15574;DHT22;7888;46.748;8.102;2023-02-01T13:55:36;21.60;35.60
15574;DHT22;7888;46.748;8.102;2023-02-01T13:58:31;21.70;34.90
15574;DHT22;7888;46.748;8.102;2023-02-01T14:03:48;21.70;33.30
15574;DHT22;7888;46.748;8.102;2023-02-01T14:09:14;21.80;34.00
15574;DHT22;7888;46.748;8.102;2023-02-01T14:11:58;21.80;33.80
15574;DHT22;7888;46.748;8.102;2023-02-01T14:14:43;21.90;34.30
15574;DHT22;7888;46.748;8.102;2023-02-01T14:17:30;21.90;34.10
15574;DHT22;7888;46.748;8.102;2023-02-01T14:20:41;21.80;33.20
15574;DHT22;7888;46.748;8.102;2023-02-01T14:23:19;21.80;33.20
15574;DHT22;7888;46.748;8.102;2023-02-01T14:25:56;21.70;33.20
15574;DHT22;7888;46.748;8.102;2023-02-01T14:28:29;21.60;33.70
15574;DHT22;7888;46.748;8.102;2023-02-01T14:30:57;21.50;33.80
15574;DHT22;7888;46.748;8.102;2023-02-01T14:33:26;21.50;33.60
15574;DHT22;7888;46.748;8.102;2023-02-01T14:36:04;21.60;33.30
15574;DHT22;7888;46.748;8.102;2023-02-01T14:38:35;21.60;32.60
15574;DHT22;7888;46.748;8.102;2023-02-01T14:41:34;21.60;33.00
15574;DHT22;7888;46.748;8.102;2023-02-01T15:01:37;20.70;32.60
15574;DHT22;7888;46.748;8.102;2023-02-01T15:04:16;20.50;32.70
15574;DHT22;7888;46.748;8.102;2023-02-01T15:06:49;20.30;32.30
15574;DHT22;7888;46.748;8.102;2023-02-01T15:09:25;20.20;33.00
15574;DHT22;7888;46.748;8.102;2023-02-01T15:14:38;19.80;33.10
15574;DHT22;7888;46.748;8.102;2023-02-01T15:17:22;19.60;32.90
15574;DHT22;7888;46.748;8.102;2023-02-01T15:19:57;19.30;32.70
15574;DHT22;7888;46.748;8.102;2023-02-01T15:22:26;19.00;32.50
15574;DHT22;7888;46.748;8.102;2023-02-01T15:25:00;18.70;32.60
15574;DHT22;7888;46.748;8.102;2023-02-01T15:27:27;18.40;32.80
15574;DHT22;7888;46.748;8.102;2023-02-01T15:29:54;18.10;33.20
15574;DHT22;7888;46.748;8.102;2023-02-01T15:32:33;17.80;33.60
15574;DHT22;7888;46.748;8.102;2023-02-01T15:35:01;17.60;33.40
15574;DHT22;7888;46.748;8.102;2023-02-01T15:37:28;17.30;33.70
15574;DHT22;7888;46.748;8.102;2023-02-01T15:42:58;16.80;33.90
15574;DHT22;7888;46.748;8.102;2023-02-01T15:45:31;16.70;34.30
15574;DHT22;7888;46.748;8.102;2023-02-01T15:47:59;16.50;35.10
15574;DHT22;7888;46.748;8.102;2023-02-01T15:50:27;16.40;35.20
15574;DHT22;7888;46.748;8.102;2023-02-01T15:52:58;16.20;35.20
15574;DHT22;7888;46.748;8.102;2023-02-01T15:55:52;16.10;35.50
15574;DHT22;7888;46.748;8.102;2023-02-01T15:58:22;15.90;35.60
15574;DHT22;7888;46.748;8.102;2023-02-01T16:00:56;15.80;35.80
15574;DHT22;7888;46.748;8.102;2023-02-01T16:06:01;15.60;36.80
15574;DHT22;7888;46.748;8.102;2023-02-01T16:08:32;15.50;35.90
15574;DHT22;7888;46.748;8.102;2023-02-01T16:11:14;15.40;36.00
15574;DHT22;7888;46.748;8.102;2023-02-01T16:13:48;15.30;36.30
15574;DHT22;7888;46.748;8.102;2023-02-01T16:16:14;15.20;36.20
15574;DHT22;7888;46.748;8.102;2023-02-01T16:18:41;15.10;36.70
15574;DHT22;7888;46.748;8.102;2023-02-01T16:21:07;15.00;36.50
15574;DHT22;7888;46.748;8.102;2023-02-01T16:23:35;14.90;36.50
15574;DHT22;7888;46.748;8.102;2023-02-01T16:26:02;14.70;36.40
15574;DHT22;7888;46.748;8.102;2023-02-01T16:28:28;14.70;36.50
15574;DHT22;7888;46.748;8.102;2023-02-01T16:30:54;14.60;36.70
15574;DHT22;7888;46.748;8.102;2023-02-01T16:33:21;14.40;37.50
15574;DHT22;7888;46.748;8.102;2023-02-01T16:35:48;14.40;37.20
15574;DHT22;7888;46.748;8.102;2023-02-01T16:38:17;14.30;37.40
15574;DHT22;7888;46.748;8.102;2023-02-01T16:40:47;14.20;37.50
15574;DHT22;7888;46.748;8.102;2023-02-01T16:43:19;14.10;37.60
15574;DHT22;7888;46.748;8.102;2023-02-01T16:45:47;14.00;37.50
15574;DHT22;7888;46.748;8.102;2023-02-01T16:48:28;13.90;37.60
15574;DHT22;7888;46.748;8.102;2023-02-01T16:50:58;13.90;37.70
15574;DHT22;7888;46.748;8.102;2023-02-01T16:53:28;13.80;37.80
15574;DHT22;7888;46.748;8.102;2023-02-01T16:55:55;13.70;37.90
15574;DHT22;7888;46.748;8.102;2023-02-01T16:58:23;13.70;37.90
15574;DHT22;7888;46.748;8.102;2023-02-01T17:00:50;13.60;38.10
15574;DHT22;7888;46.748;8.102;2023-02-01T17:03:18;13.50;38.20
15574;DHT22;7888;46.748;8.102;2023-02-01T17:05:53;13.40;38.30
15574;DHT22;7888;46.748;8.102;2023-02-01T17:08:34;13.40;38.60
15574;DHT22;7888;46.748;8.102;2023-02-01T17:11:02;13.30;38.70
15574;DHT22;7888;46.748;8.102;2023-02-01T17:13:30;13.20;38.80
15574;DHT22;7888;46.748;8.102;2023-02-01T17:19:03;13.10;39.00
15574;DHT22;7888;46.748;8.102;2023-02-01T17:21:41;13.00;39.00
15574;DHT22;7888;46.748;8.102;2023-02-01T17:24:13;13.00;39.20
15574;DHT22;7888;46.748;8.102;2023-02-01T17:26:41;12.90;39.20
15574;DHT22;7888;46.748;8.102;2023-02-01T17:29:08;12.90;39.30
15574;DHT22;7888;46.748;8.102;2023-02-01T17:31:40;12.80;39.40
15574;DHT22;7888;46.748;8.102;2023-02-01T17:34:09;12.70;39.50
15574;DHT22;7888;46.748;8.102;2023-02-01T17:36:36;12.70;39.50
15574;DHT22;7888;46.748;8.102;2023-02-01T17:39:04;12.60;39.60
15574;DHT22;7888;46.748;8.102;2023-02-01T17:41:30;12.60;39.70
15574;DHT22;7888;46.748;8.102;2023-02-01T17:43:56;12.50;39.80
15574;DHT22;7888;46.748;8.102;2023-02-01T17:46:22;12.40;39.90
15574;DHT22;7888;46.748;8.102;2023-02-01T17:48:52;12.40;40.00
15574;DHT22;7888;46.748;8.102;2023-02-01T17:51:23;12.30;40.10
15574;DHT22;7888;46.748;8.102;2023-02-01T17:53:53;12.30;40.30
15574;DHT22;7888;46.748;8.102;2023-02-01T17:56:22;12.20;40.20
15574;DHT22;7888;46.748;8.102;2023-02-01T17:58:49;12.20;40.40
15574;DHT22;7888;46.748;8.102;2023-02-01T18:01:21;12.10;40.40
15574;DHT22;7888;46.748;8.102;2023-02-01T18:03:48;12.10;40.50
15574;DHT22;7888;46.748;8.102;2023-02-01T18:06:17;12.00;40.50
15574;DHT22;7888;46.748;8.102;2023-02-01T18:08:44;11.90;40.60
15574;DHT22;7888;46.748;8.102;2023-02-01T18:11:16;11.90;40.70
15574;DHT22;7888;46.748;8.102;2023-02-01T18:13:44;11.80;40.80
15574;DHT22;7888;46.748;8.102;2023-02-01T18:16:31;11.80;40.90
15574;DHT22;7888;46.748;8.102;2023-02-01T18:18:58;11.70;41.20
15574;DHT22;7888;46.748;8.102;2023-02-01T18:21:35;11.70;40.90
15574;DHT22;7888;46.748;8.102;2023-02-01T18:24:15;11.60;41.00
15574;DHT22;7888;46.748;8.102;2023-02-01T18:26:42;11.50;41.00
15574;DHT22;7888;46.748;8.102;2023-02-01T18:29:08;11.50;41.00
15574;DHT22;7888;46.748;8.102;2023-02-01T18:31:37;11.40;41.10
15574;DHT22;7888;46.748;8.102;2023-02-01T18:34:15;11.30;41.20
15574;DHT22;7888;46.748;8.102;2023-02-01T18:36:50;11.30;41.20
15574;DHT22;7888;46.748;8.102;2023-02-01T18:39:16;11.30;41.20
15574;DHT22;7888;46.748;8.102;2023-02-01T18:41:47;11.20;41.30
15574;DHT22;7888;46.748;8.102;2023-02-01T18:44:15;11.10;41.30
15574;DHT22;7888;46.748;8.102;2023-02-01T18:46:42;11.10;41.50
15574;DHT22;7888;46.748;8.102;2023-02-01T18:49:08;11.00;42.00
15574;DHT22;7888;46.748;8.102;2023-02-01T18:51:36;11.00;41.50
15574;DHT22;7888;46.748;8.102;2023-02-01T18:54:02;11.00;41.50
15574;DHT22;7888;46.748;8.102;2023-02-01T18:56:28;10.90;41.60
15574;DHT22;7888;46.748;8.102;2023-02-01T18:58:54;10.90;41.70
15574;DHT22;7888;46.748;8.102;2023-02-01T19:01:21;10.80;41.70
15574;DHT22;7888;46.748;8.102;2023-02-01T19:03:47;10.80;41.80
15574;DHT22;7888;46.748;8.102;2023-02-01T19:06:14;10.70;41.80